sensor_id;sensor_type;location;lat;lon;timestamp;pressure;altitude;pressure_sealevel;temperature
77414;BMP280;66486;49.992;19.164;2023-04-24T00:00:29;98036.84;;;11.52
77414;BMP280;66486;49.992;19.164;2023-04-24T00:03:15;98028.22;;;11.57
77414;BMP280;66486;49.992;19.164;2023-04-24T00:05:41;98025.63;;;11.32
77414;BMP280;66486;49.992;19.164;2023-04-24T00:08:07;98023.81;;;11.29
77414;BMP280;66486;49.992;19.164;2023-04-24T00:10:33;98022.72;;;11.39
77414;BMP280;66486;49.992;19.164;2023-04-24T00:12:59;98023.50;;;11.27
77414;BMP280;66486;49.992;19.164;2023-04-24T00:15:25;98010.28;;;11.42
77414;BMP280;66486;49.992;19.164;2023-04-24T00:17:51;98011.44;;;11.32
77414;BMP280;66486;49.992;19.164;2023-04-24T00:20:19;98013.38;;;11.31
77414;BMP280;66486;49.992;19.164;2023-04-24T00:22:44;98002.84;;;11.24
77414;BMP280;66486;49.992;19.164;2023-04-24T00:25:10;98000.16;;;11.24
77414;BMP280;66486;49.992;19.164;2023-04-24T00:27:36;97999.16;;;11.31
77414;BMP280;66486;49.992;19.164;2023-04-24T00:30:03;97997.25;;;11.40
77414;BMP280;66486;49.992;19.164;2023-04-24T00:32:29;97990.81;;;11.38
77414;BMP280;66486;49.992;19.164;2023-04-24T00:34:55;97994.63;;;11.27
77414;BMP280;66486;49.992;19.164;2023-04-24T00:37:21;97989.31;;;11.37
77414;BMP280;66486;49.992;19.164;2023-04-24T00:39:47;97994.69;;;11.37
77414;BMP280;66486;49.992;19.164;2023-04-24T00:42:13;97979.41;;;11.34
77414;BMP280;66486;49.992;19.164;2023-04-24T00:44:39;97974.03;;;11.34
77414;BMP280;66486;49.992;19.164;2023-04-24T00:47:05;97974.28;;;11.26
77414;BMP280;66486;49.992;19.164;2023-04-24T00:49:31;97972.75;;;11.25
77414;BMP280;66486;49.992;19.164;2023-04-24T00:51:57;97980.56;;;11.23
77414;BMP280;66486;49.992;19.164;2023-04-24T00:54:25;97973.84;;;11.06
77414;BMP280;66486;49.992;19.164;2023-04-24T00:56:50;97969.94;;;11.07
77414;BMP280;66486;49.992;19.164;2023-04-24T00:59:17;97962.31;;;11.06
77414;BMP280;66486;49.992;19.164;2023-04-24T01:01:44;97957.25;;;11.08
77414;BMP280;66486;49.992;19.164;2023-04-24T01:04:11;97962.44;;;11.02
77414;BMP280;66486;49.992;19.164;2023-04-24T01:06:43;97966.06;;;11.08
77414;BMP280;66486;49.992;19.164;2023-04-24T01:09:11;97953.53;;;10.93
77414;BMP280;66486;49.992;19.164;2023-04-24T01:11:37;97955.78;;;10.94
77414;BMP280;66486;49.992;19.164;2023-04-24T01:14:03;97952.31;;;11.06
77414;BMP280;66486;49.992;19.164;2023-04-24T01:16:29;97945.41;;;11.05
77414;BMP280;66486;49.992;19.164;2023-04-24T01:18:56;97951.22;;;11.04
77414;BMP280;66486;49.992;19.164;2023-04-24T01:21:23;97955.16;;;10.90
77414;BMP280;66486;49.992;19.164;2023-04-24T01:23:53;97954.91;;;10.97
77414;BMP280;66486;49.992;19.164;2023-04-24T01:26:19;97946.69;;;10.67
77414;BMP280;66486;49.992;19.164;2023-04-24T01:28:46;97939.84;;;10.66
77414;BMP280;66486;49.992;19.164;2023-04-24T01:31:14;97940.13;;;10.80
77414;BMP280;66486;49.992;19.164;2023-04-24T01:33:41;97929.50;;;10.77
77414;BMP280;66486;49.992;19.164;2023-04-24T01:36:09;97943.00;;;10.86
77414;BMP280;66486;49.992;19.164;2023-04-24T01:38:36;97939.75;;;10.91
77414;BMP280;66486;49.992;19.164;2023-04-24T01:41:02;97926.69;;;10.68
77414;BMP280;66486;49.992;19.164;2023-04-24T01:43:28;97929.88;;;10.53
77414;BMP280;66486;49.992;19.164;2023-04-24T01:45:54;97910.28;;;10.53
77414;BMP280;66486;49.992;19.164;2023-04-24T01:48:20;97925.53;;;10.69
77414;BMP280;66486;49.992;19.164;2023-04-24T01:50:46;97922.19;;;10.64
77414;BMP280;66486;49.992;19.164;2023-04-24T01:53:13;97915.28;;;10.76
77414;BMP280;66486;49.992;19.164;2023-04-24T01:55:38;97917.47;;;10.69
77414;BMP280;66486;49.992;19.164;2023-04-24T01:58:05;97922.19;;;10.64
77414;BMP280;66486;49.992;19.164;2023-04-24T02:00:31;97911.38;;;10.43
77414;BMP280;66486;49.992;19.164;2023-04-24T02:02:57;97903.09;;;10.37
77414;BMP280;66486;49.992;19.164;2023-04-24T02:05:23;97913.41;;;10.39
77414;BMP280;66486;49.992;19.164;2023-04-24T02:07:49;97912.91;;;10.19
77414;BMP280;66486;49.992;19.164;2023-04-24T02:10:14;97907.53;;;10.19
77414;BMP280;66486;49.992;19.164;2023-04-24T02:12:41;97918.50;;;10.12
77414;BMP280;66486;49.992;19.164;2023-04-24T02:15:07;97907.94;;;10.30
77414;BMP280;66486;49.992;19.164;2023-04-24T02:17:33;97908.59;;;10.34
77414;BMP280;66486;49.992;19.164;2023-04-24T02:19:59;97893.31;;;10.31
77414;BMP280;66486;49.992;19.164;2023-04-24T02:22:25;97901.09;;;10.29
77414;BMP280;66486;49.992;19.164;2023-04-24T02:24:50;97901.94;;;10.13
77414;BMP280;66486;49.992;19.164;2023-04-24T02:27:17;97904.22;;;10.15
77414;BMP280;66486;49.992;19.164;2023-04-24T02:29:42;97889.06;;;10.21
77414;BMP280;66486;49.992;19.164;2023-04-24T02:32:08;97895.19;;;10.09
77414;BMP280;66486;49.992;19.164;2023-04-24T02:34:37;97892.28;;;9.90
77414;BMP280;66486;49.992;19.164;2023-04-24T02:37:04;97883.50;;;9.77
77414;BMP280;66486;49.992;19.164;2023-04-24T02:39:30;97885.41;;;9.89
77414;BMP280;66486;49.992;19.164;2023-04-24T02:41:56;97887.47;;;9.85
77414;BMP280;66486;49.992;19.164;2023-04-24T02:44:22;97887.88;;;9.96
77414;BMP280;66486;49.992;19.164;2023-04-24T02:46:48;97891.56;;;10.03
77414;BMP280;66486;49.992;19.164;2023-04-24T02:49:14;97879.72;;;10.13
77414;BMP280;66486;49.992;19.164;2023-04-24T02:51:40;97888.97;;;9.74
77414;BMP280;66486;49.992;19.164;2023-04-24T02:54:08;97883.25;;;9.97
77414;BMP280;66486;49.992;19.164;2023-04-24T02:56:35;97885.84;;;9.88
77414;BMP280;66486;49.992;19.164;2023-04-24T02:59:01;97886.59;;;10.01
77414;BMP280;66486;49.992;19.164;2023-04-24T03:01:27;97891.31;;;9.97
77414;BMP280;66486;49.992;19.164;2023-04-24T03:03:53;97885.53;;;9.86
77414;BMP280;66486;49.992;19.164;2023-04-24T03:06:19;97877.38;;;9.77
77414;BMP280;66486;49.992;19.164;2023-04-24T03:08:46;97876.69;;;9.98
77414;BMP280;66486;49.992;19.164;2023-04-24T03:11:12;97874.78;;;10.11
77414;BMP280;66486;49.992;19.164;2023-04-24T03:13:38;97884.41;;;10.21
77414;BMP280;66486;49.992;19.164;2023-04-24T03:16:04;97891.50;;;10.15
77414;BMP280;66486;49.992;19.164;2023-04-24T03:18:31;97881.97;;;10.14
77414;BMP280;66486;49.992;19.164;2023-04-24T03:20:57;97878.84;;;10.16
77414;BMP280;66486;49.992;19.164;2023-04-24T03:23:23;97885.38;;;10.27
77414;BMP280;66486;49.992;19.164;2023-04-24T03:25:49;97884.66;;;10.14
77414;BMP280;66486;49.992;19.164;2023-04-24T03:28:15;97886.19;;;10.03
77414;BMP280;66486;49.992;19.164;2023-04-24T03:30:41;97885.94;;;9.97
77414;BMP280;66486;49.992;19.164;2023-04-24T03:33:07;97889.41;;;10.10
77414;BMP280;66486;49.992;19.164;2023-04-24T03:35:33;97872.28;;;10.17
77414;BMP280;66486;49.992;19.164;2023-04-24T03:37:59;97871.97;;;10.15
77414;BMP280;66486;49.992;19.164;2023-04-24T03:40:25;97879.34;;;10.23
77414;BMP280;66486;49.992;19.164;2023-04-24T03:42:50;97884.13;;;10.07
77414;BMP280;66486;49.992;19.164;2023-04-24T03:45:17;97890.25;;;10.07
77414;BMP280;66486;49.992;19.164;2023-04-24T03:47:42;97881.53;;;10.16
77414;BMP280;66486;49.992;19.164;2023-04-24T03:50:09;97878.94;;;10.25
77414;BMP280;66486;49.992;19.164;2023-04-24T03:52:35;97887.06;;;10.46
77414;BMP280;66486;49.992;19.164;2023-04-24T03:55:01;97886.19;;;10.49
77414;BMP280;66486;49.992;19.164;2023-04-24T03:57:27;97888.56;;;10.47
77414;BMP280;66486;49.992;19.164;2023-04-24T03:59:53;97895.63;;;10.54
77414;BMP280;66486;49.992;19.164;2023-04-24T04:02:19;97889.88;;;10.43
77414;BMP280;66486;49.992;19.164;2023-04-24T04:04:45;97888.13;;;10.49
77414;BMP280;66486;49.992;19.164;2023-04-24T04:07:11;97881.53;;;10.62
77414;BMP280;66486;49.992;19.164;2023-04-24T04:09:38;97883.66;;;10.68
77414;BMP280;66486;49.992;19.164;2023-04-24T04:12:04;97890.56;;;10.69
77414;BMP280;66486;49.992;19.164;2023-04-24T04:14:30;97883.03;;;10.63
77414;BMP280;66486;49.992;19.164;2023-04-24T04:16:56;97889.97;;;10.39
77414;BMP280;66486;49.992;19.164;2023-04-24T04:19:22;97886.53;;;10.51
77414;BMP280;66486;49.992;19.164;2023-04-24T04:21:48;97890.91;;;10.58
77414;BMP280;66486;49.992;19.164;2023-04-24T04:24:19;97884.72;;;10.70
77414;BMP280;66486;49.992;19.164;2023-04-24T04:26:50;97888.97;;;10.58
77414;BMP280;66486;49.992;19.164;2023-04-24T04:29:17;97883.53;;;10.71
77414;BMP280;66486;49.992;19.164;2023-04-24T04:31:48;97885.19;;;10.90
77414;BMP280;66486;49.992;19.164;2023-04-24T04:34:14;97890.31;;;10.97
77414;BMP280;66486;49.992;19.164;2023-04-24T04:36:41;97894.94;;;10.97
77414;BMP280;66486;49.992;19.164;2023-04-24T04:39:07;97889.31;;;11.04
77414;BMP280;66486;49.992;19.164;2023-04-24T04:41:33;97884.84;;;10.88
77414;BMP280;66486;49.992;19.164;2023-04-24T04:44:01;97891.50;;;10.96
77414;BMP280;66486;49.992;19.164;2023-04-24T04:46:30;97879.13;;;10.99
77414;BMP280;66486;49.992;19.164;2023-04-24T04:48:59;97884.53;;;10.99
77414;BMP280;66486;49.992;19.164;2023-04-24T04:51:25;97887.13;;;10.90
77414;BMP280;66486;49.992;19.164;2023-04-24T04:53:51;97883.31;;;11.00
77414;BMP280;66486;49.992;19.164;2023-04-24T04:56:17;97878.13;;;11.05
77414;BMP280;66486;49.992;19.164;2023-04-24T04:58:43;97880.47;;;11.03
77414;BMP280;66486;49.992;19.164;2023-04-24T05:01:09;97892.72;;;10.95
77414;BMP280;66486;49.992;19.164;2023-04-24T05:03:35;97877.78;;;11.03
77414;BMP280;66486;49.992;19.164;2023-04-24T05:06:01;97881.31;;;11.13
77414;BMP280;66486;49.992;19.164;2023-04-24T05:08:27;97877.31;;;11.17
77414;BMP280;66486;49.992;19.164;2023-04-24T05:10:54;97883.56;;;11.14
77414;BMP280;66486;49.992;19.164;2023-04-24T05:13:21;97882.47;;;11.34
77414;BMP280;66486;49.992;19.164;2023-04-24T05:15:47;97892.66;;;11.60
77414;BMP280;66486;49.992;19.164;2023-04-24T05:18:13;97878.69;;;11.53
77414;BMP280;66486;49.992;19.164;2023-04-24T05:20:38;97882.97;;;11.72
77414;BMP280;66486;49.992;19.164;2023-04-24T05:23:05;97882.38;;;11.77
77414;BMP280;66486;49.992;19.164;2023-04-24T05:25:30;97887.47;;;11.75
77414;BMP280;66486;49.992;19.164;2023-04-24T05:28:01;97886.91;;;11.89
77414;BMP280;66486;49.992;19.164;2023-04-24T05:30:27;97883.84;;;12.09
77414;BMP280;66486;49.992;19.164;2023-04-24T05:32:53;97879.50;;;12.11
77414;BMP280;66486;49.992;19.164;2023-04-24T05:35:19;97880.25;;;12.21
77414;BMP280;66486;49.992;19.164;2023-04-24T05:37:45;97868.13;;;12.34
77414;BMP280;66486;49.992;19.164;2023-04-24T05:40:11;97876.09;;;12.56
77414;BMP280;66486;49.992;19.164;2023-04-24T05:42:37;97877.59;;;12.57
77414;BMP280;66486;49.992;19.164;2023-04-24T05:45:04;97877.00;;;12.71
77414;BMP280;66486;49.992;19.164;2023-04-24T05:47:30;97878.19;;;12.79
77414;BMP280;66486;49.992;19.164;2023-04-24T05:49:56;97876.03;;;13.01
77414;BMP280;66486;49.992;19.164;2023-04-24T05:52:22;97875.28;;;13.01
77414;BMP280;66486;49.992;19.164;2023-04-24T05:54:48;97875.72;;;13.08
77414;BMP280;66486;49.992;19.164;2023-04-24T05:57:14;97873.16;;;13.14
77414;BMP280;66486;49.992;19.164;2023-04-24T05:59:40;97871.31;;;13.38
77414;BMP280;66486;49.992;19.164;2023-04-24T06:02:07;97870.63;;;13.52
77414;BMP280;66486;49.992;19.164;2023-04-24T06:04:32;97864.63;;;13.57
77414;BMP280;66486;49.992;19.164;2023-04-24T06:06:59;97873.00;;;13.68
77414;BMP280;66486;49.992;19.164;2023-04-24T06:09:25;97865.00;;;13.74
77414;BMP280;66486;49.992;19.164;2023-04-24T06:11:52;97859.91;;;13.76
77414;BMP280;66486;49.992;19.164;2023-04-24T06:14:19;97868.25;;;13.78
77414;BMP280;66486;49.992;19.164;2023-04-24T06:16:45;97862.88;;;14.01
77414;BMP280;66486;49.992;19.164;2023-04-24T06:19:11;97868.69;;;14.09
77414;BMP280;66486;49.992;19.164;2023-04-24T06:21:37;97858.78;;;14.30
77414;BMP280;66486;49.992;19.164;2023-04-24T06:24:03;97862.34;;;14.50
77414;BMP280;66486;49.992;19.164;2023-04-24T06:26:30;97840.25;;;14.52
77414;BMP280;66486;49.992;19.164;2023-04-24T06:28:56;97853.44;;;14.88
77414;BMP280;66486;49.992;19.164;2023-04-24T06:31:24;97853.25;;;15.06
77414;BMP280;66486;49.992;19.164;2023-04-24T06:33:50;97844.16;;;15.24
77414;BMP280;66486;49.992;19.164;2023-04-24T06:36:16;97843.59;;;15.34
77414;BMP280;66486;49.992;19.164;2023-04-24T06:38:42;97847.41;;;15.42
77414;BMP280;66486;49.992;19.164;2023-04-24T06:41:09;97841.13;;;15.51
77414;BMP280;66486;49.992;19.164;2023-04-24T06:43:35;97835.13;;;15.62
77414;BMP280;66486;49.992;19.164;2023-04-24T06:46:02;97834.91;;;15.65
77414;BMP280;66486;49.992;19.164;2023-04-24T06:48:29;97837.63;;;15.85
77414;BMP280;66486;49.992;19.164;2023-04-24T06:50:55;97838.06;;;15.78
77414;BMP280;66486;49.992;19.164;2023-04-24T06:53:21;97838.06;;;15.78
77414;BMP280;66486;49.992;19.164;2023-04-24T06:55:47;97832.41;;;16.02
77414;BMP280;66486;49.992;19.164;2023-04-24T06:58:13;97840.28;;;16.20
77414;BMP280;66486;49.992;19.164;2023-04-24T07:00:40;97850.25;;;16.54
77414;BMP280;66486;49.992;19.164;2023-04-24T07:03:06;97843.78;;;16.77
77414;BMP280;66486;49.992;19.164;2023-04-24T07:05:32;97841.47;;;16.96
77414;BMP280;66486;49.992;19.164;2023-04-24T07:08:01;97828.81;;;17.24
77414;BMP280;66486;49.992;19.164;2023-04-24T07:10:27;97834.41;;;17.46
77414;BMP280;66486;49.992;19.164;2023-04-24T07:12:54;97831.00;;;17.57
77414;BMP280;66486;49.992;19.164;2023-04-24T07:15:22;97822.63;;;17.60
77414;BMP280;66486;49.992;19.164;2023-04-24T07:17:49;97821.41;;;17.72
77414;BMP280;66486;49.992;19.164;2023-04-24T07:20:15;97827.69;;;18.06
77414;BMP280;66486;49.992;19.164;2023-04-24T07:22:41;97828.03;;;18.30
77414;BMP280;66486;49.992;19.164;2023-04-24T07:25:08;97831.75;;;18.49
77414;BMP280;66486;49.992;19.164;2023-04-24T07:27:35;97828.31;;;18.54
77414;BMP280;66486;49.992;19.164;2023-04-24T07:30:03;97830.28;;;18.48
77414;BMP280;66486;49.992;19.164;2023-04-24T07:32:30;97827.56;;;18.76
77414;BMP280;66486;49.992;19.164;2023-04-24T07:34:56;97820.88;;;18.99
77414;BMP280;66486;49.992;19.164;2023-04-24T07:37:22;97823.28;;;19.36
77414;BMP280;66486;49.992;19.164;2023-04-24T07:39:48;97807.56;;;19.47
77414;BMP280;66486;49.992;19.164;2023-04-24T07:42:14;97817.41;;;19.73
77414;BMP280;66486;49.992;19.164;2023-04-24T07:44:40;97818.63;;;19.77
77414;BMP280;66486;49.992;19.164;2023-04-24T07:47:06;97801.69;;;19.90
77414;BMP280;66486;49.992;19.164;2023-04-24T07:49:33;97807.56;;;19.99
77414;BMP280;66486;49.992;19.164;2023-04-24T07:52:00;97809.00;;;20.11
77414;BMP280;66486;49.992;19.164;2023-04-24T07:54:28;97806.53;;;20.08
77414;BMP280;66486;49.992;19.164;2023-04-24T07:56:54;97802.09;;;20.05
77414;BMP280;66486;49.992;19.164;2023-04-24T07:59:20;97803.47;;;20.22
77414;BMP280;66486;49.992;19.164;2023-04-24T08:01:46;97794.16;;;20.42
77414;BMP280;66486;49.992;19.164;2023-04-24T08:04:12;97792.09;;;20.48
77414;BMP280;66486;49.992;19.164;2023-04-24T08:06:38;97791.66;;;20.68
77414;BMP280;66486;49.992;19.164;2023-04-24T08:09:04;97797.03;;;20.49
77414;BMP280;66486;49.992;19.164;2023-04-24T08:11:30;97788.34;;;20.51
77414;BMP280;66486;49.992;19.164;2023-04-24T08:13:57;97783.97;;;20.96
77414;BMP280;66486;49.992;19.164;2023-04-24T08:16:23;97790.66;;;20.95
77414;BMP280;66486;49.992;19.164;2023-04-24T08:18:50;97780.22;;;20.94
77414;BMP280;66486;49.992;19.164;2023-04-24T08:21:16;97781.41;;;20.98
77414;BMP280;66486;49.992;19.164;2023-04-24T08:23:45;97779.94;;;20.73
77414;BMP280;66486;49.992;19.164;2023-04-24T08:26:11;97775.78;;;20.91
77414;BMP280;66486;49.992;19.164;2023-04-24T08:28:38;97777.56;;;21.31
77414;BMP280;66486;49.992;19.164;2023-04-24T08:31:04;97789.19;;;21.56
77414;BMP280;66486;49.992;19.164;2023-04-24T08:33:30;97779.88;;;21.64
77414;BMP280;66486;49.992;19.164;2023-04-24T08:36:07;97787.13;;;21.99
77414;BMP280;66486;49.992;19.164;2023-04-24T08:38:33;97774.72;;;22.11
77414;BMP280;66486;49.992;19.164;2023-04-24T08:41:00;97781.69;;;22.57
77414;BMP280;66486;49.992;19.164;2023-04-24T08:43:27;97779.38;;;22.61
77414;BMP280;66486;49.992;19.164;2023-04-24T08:45:55;97769.66;;;22.73
77414;BMP280;66486;49.992;19.164;2023-04-24T08:48:22;97778.44;;;22.71
77414;BMP280;66486;49.992;19.164;2023-04-24T08:50:50;97783.97;;;22.39
77414;BMP280;66486;49.992;19.164;2023-04-24T08:53:18;97781.94;;;22.72
77414;BMP280;66486;49.992;19.164;2023-04-24T08:55:47;97775.69;;;23.10
77414;BMP280;66486;49.992;19.164;2023-04-24T08:58:16;97767.59;;;23.52
77414;BMP280;66486;49.992;19.164;2023-04-24T09:00:42;97770.34;;;23.38
77414;BMP280;66486;49.992;19.164;2023-04-24T09:03:16;97774.94;;;23.23
77414;BMP280;66486;49.992;19.164;2023-04-24T09:05:47;97771.31;;;23.28
77414;BMP280;66486;49.992;19.164;2023-04-24T09:08:13;97767.28;;;23.76
77414;BMP280;66486;49.992;19.164;2023-04-24T09:10:40;97763.75;;;24.09
77414;BMP280;66486;49.992;19.164;2023-04-24T09:13:07;97767.84;;;23.95
77414;BMP280;66486;49.992;19.164;2023-04-24T09:15:36;97770.59;;;23.95
77414;BMP280;66486;49.992;19.164;2023-04-24T09:18:03;97763.34;;;24.05
77414;BMP280;66486;49.992;19.164;2023-04-24T09:20:30;97764.75;;;24.19
77414;BMP280;66486;49.992;19.164;2023-04-24T09:22:57;97764.03;;;24.47
77414;BMP280;66486;49.992;19.164;2023-04-24T09:25:31;97754.47;;;24.68
77414;BMP280;66486;49.992;19.164;2023-04-24T09:28:01;97749.53;;;24.74
77414;BMP280;66486;49.992;19.164;2023-04-24T09:30:28;97755.22;;;24.76
77414;BMP280;66486;49.992;19.164;2023-04-24T09:33:12;97746.78;;;24.46
77414;BMP280;66486;49.992;19.164;2023-04-24T09:35:42;97742.16;;;23.92
77414;BMP280;66486;49.992;19.164;2023-04-24T09:38:11;97742.34;;;24.15
77414;BMP280;66486;49.992;19.164;2023-04-24T09:40:37;97740.88;;;24.14
77414;BMP280;66486;49.992;19.164;2023-04-24T09:43:03;97738.03;;;23.99
77414;BMP280;66486;49.992;19.164;2023-04-24T09:45:36;97738.31;;;23.54
77414;BMP280;66486;49.992;19.164;2023-04-24T09:48:03;97740.28;;;23.33
77414;BMP280;66486;49.992;19.164;2023-04-24T09:50:32;97745.81;;;23.07
77414;BMP280;66486;49.992;19.164;2023-04-24T09:53:04;97737.31;;;23.31
77414;BMP280;66486;49.992;19.164;2023-04-24T09:55:31;97742.38;;;23.40
77414;BMP280;66486;49.992;19.164;2023-04-24T09:58:01;97751.25;;;23.33
77414;BMP280;66486;49.992;19.164;2023-04-24T10:00:32;97757.13;;;22.64
77414;BMP280;66486;49.992;19.164;2023-04-24T10:03:04;97752.94;;;21.87
77414;BMP280;66486;49.992;19.164;2023-04-24T10:05:32;97765.00;;;21.41
77414;BMP280;66486;49.992;19.164;2023-04-24T10:08:06;97756.97;;;21.06
77414;BMP280;66486;49.992;19.164;2023-04-24T10:10:34;97759.44;;;20.85
77414;BMP280;66486;49.992;19.164;2023-04-24T10:13:03;97755.72;;;20.83
77414;BMP280;66486;49.992;19.164;2023-04-24T10:15:30;97755.84;;;20.96
77414;BMP280;66486;49.992;19.164;2023-04-24T10:17:58;97751.28;;;21.04
77414;BMP280;66486;49.992;19.164;2023-04-24T10:20:27;97750.78;;;21.24
77414;BMP280;66486;49.992;19.164;2023-04-24T10:22:56;97752.56;;;21.21
77414;BMP280;66486;49.992;19.164;2023-04-24T10:25:24;97758.25;;;21.23
77414;BMP280;66486;49.992;19.164;2023-04-24T10:27:51;97773.16;;;21.47
77414;BMP280;66486;49.992;19.164;2023-04-24T10:30:19;97758.47;;;21.25
77414;BMP280;66486;49.992;19.164;2023-04-24T10:32:45;97759.81;;;21.37
77414;BMP280;66486;49.992;19.164;2023-04-24T10:35:13;97762.19;;;21.47
77414;BMP280;66486;49.992;19.164;2023-04-24T10:37:45;97747.75;;;21.83
77414;BMP280;66486;49.992;19.164;2023-04-24T10:40:17;97762.03;;;22.26
77414;BMP280;66486;49.992;19.164;2023-04-24T10:42:47;97760.13;;;22.34
77414;BMP280;66486;49.992;19.164;2023-04-24T10:45:20;97754.66;;;22.48
77414;BMP280;66486;49.992;19.164;2023-04-24T10:48:06;97758.13;;;22.35
77414;BMP280;66486;49.992;19.164;2023-04-24T10:50:52;97752.53;;;22.27
77414;BMP280;66486;49.992;19.164;2023-04-24T10:53:21;97761.09;;;22.05
77414;BMP280;66486;49.992;19.164;2023-04-24T10:55:58;97758.94;;;21.67
77414;BMP280;66486;49.992;19.164;2023-04-24T10:58:39;97752.94;;;21.31
77414;BMP280;66486;49.992;19.164;2023-04-24T11:01:06;97753.44;;;21.11
77414;BMP280;66486;49.992;19.164;2023-04-24T11:03:34;97753.53;;;21.24
77414;BMP280;66486;49.992;19.164;2023-04-24T11:06:07;97748.06;;;21.42
77414;BMP280;66486;49.992;19.164;2023-04-24T11:08:44;97745.13;;;20.98
77414;BMP280;66486;49.992;19.164;2023-04-24T11:11:16;97761.06;;;20.94
77414;BMP280;66486;49.992;19.164;2023-04-24T11:16:27;97771.19;;;20.51
77414;BMP280;66486;49.992;19.164;2023-04-24T11:21:42;97786.94;;;20.04
77414;BMP280;66486;49.992;19.164;2023-04-24T11:29:47;97781.81;;;19.89
77414;BMP280;66486;49.992;19.164;2023-04-24T11:32:18;97769.50;;;19.72
77414;BMP280;66486;49.992;19.164;2023-04-24T11:34:46;97788.69;;;19.55
77414;BMP280;66486;49.992;19.164;2023-04-24T11:37:13;97795.38;;;19.65
77414;BMP280;66486;49.992;19.164;2023-04-24T11:39:40;97788.94;;;19.51
77414;BMP280;66486;49.992;19.164;2023-04-24T11:42:07;97797.00;;;19.27
77414;BMP280;66486;49.992;19.164;2023-04-24T11:44:34;97796.25;;;19.27
77414;BMP280;66486;49.992;19.164;2023-04-24T11:47:05;97796.00;;;19.30
77414;BMP280;66486;49.992;19.164;2023-04-24T11:49:38;97791.03;;;19.29
77414;BMP280;66486;49.992;19.164;2023-04-24T11:52:05;97802.00;;;19.07
77414;BMP280;66486;49.992;19.164;2023-04-24T11:54:32;97806.94;;;18.97
77414;BMP280;66486;49.992;19.164;2023-04-24T11:56:58;97798.06;;;18.86
77414;BMP280;66486;49.992;19.164;2023-04-24T11:59:24;97792.66;;;18.69
77414;BMP280;66486;49.992;19.164;2023-04-24T12:01:50;97794.84;;;18.54
77414;BMP280;66486;49.992;19.164;2023-04-24T12:04:17;97814.19;;;18.50
77414;BMP280;66486;49.992;19.164;2023-04-24T12:06:59;97804.75;;;18.46
77414;BMP280;66486;49.992;19.164;2023-04-24T12:09:26;97796.53;;;18.13
77414;BMP280;66486;49.992;19.164;2023-04-24T12:11:53;97806.47;;;18.21
77414;BMP280;66486;49.992;19.164;2023-04-24T12:14:21;97793.84;;;18.18
77414;BMP280;66486;49.992;19.164;2023-04-24T12:16:51;97793.78;;;18.02
77414;BMP280;66486;49.992;19.164;2023-04-24T12:19:23;97804.00;;;18.18
77414;BMP280;66486;49.992;19.164;2023-04-24T12:22:03;97801.03;;;18.32
77414;BMP280;66486;49.992;19.164;2023-04-24T12:24:29;97795.13;;;18.45
77414;BMP280;66486;49.992;19.164;2023-04-24T12:26:56;97787.44;;;18.60
77414;BMP280;66486;49.992;19.164;2023-04-24T12:29:24;97779.50;;;18.40
77414;BMP280;66486;49.992;19.164;2023-04-24T12:31:51;97799.28;;;18.29
77414;BMP280;66486;49.992;19.164;2023-04-24T12:34:22;97779.72;;;18.09
77414;BMP280;66486;49.992;19.164;2023-04-24T12:36:48;97771.03;;;18.10
77414;BMP280;66486;49.992;19.164;2023-04-24T12:39:15;97771.00;;;17.88
77414;BMP280;66486;49.992;19.164;2023-04-24T12:42:08;97779.38;;;17.73
77414;BMP280;66486;49.992;19.164;2023-04-24T12:44:35;97773.16;;;17.67
77414;BMP280;66486;49.992;19.164;2023-04-24T12:47:02;97770.69;;;17.69
77414;BMP280;66486;49.992;19.164;2023-04-24T12:49:30;97778.28;;;17.54
77414;BMP280;66486;49.992;19.164;2023-04-24T12:51:56;97772.59;;;17.58
77414;BMP280;66486;49.992;19.164;2023-04-24T12:54:22;97773.03;;;17.40
77414;BMP280;66486;49.992;19.164;2023-04-24T12:56:48;97777.25;;;17.35
77414;BMP280;66486;49.992;19.164;2023-04-24T12:59:14;97772.22;;;17.28
77414;BMP280;66486;49.992;19.164;2023-04-24T13:01:41;97765.50;;;17.18
77414;BMP280;66486;49.992;19.164;2023-04-24T13:04:07;97764.16;;;16.97
77414;BMP280;66486;49.992;19.164;2023-04-24T13:06:33;97766.38;;;16.93
77414;BMP280;66486;49.992;19.164;2023-04-24T13:08:59;97765.38;;;16.96
77414;BMP280;66486;49.992;19.164;2023-04-24T13:11:25;97760.00;;;17.01
77414;BMP280;66486;49.992;19.164;2023-04-24T13:13:51;97766.09;;;17.33
77414;BMP280;66486;49.992;19.164;2023-04-24T13:16:17;97747.22;;;17.19
77414;BMP280;66486;49.992;19.164;2023-04-24T13:18:43;97751.91;;;17.18
77414;BMP280;66486;49.992;19.164;2023-04-24T13:21:09;97746.47;;;17.18
77414;BMP280;66486;49.992;19.164;2023-04-24T13:23:35;97745.75;;;17.23
77414;BMP280;66486;49.992;19.164;2023-04-24T13:26:01;97740.81;;;17.22
77414;BMP280;66486;49.992;19.164;2023-04-24T13:28:28;97751.78;;;17.38
77414;BMP280;66486;49.992;19.164;2023-04-24T13:30:55;97760.22;;;17.46
77414;BMP280;66486;49.992;19.164;2023-04-24T13:33:21;97750.81;;;17.41
77414;BMP280;66486;49.992;19.164;2023-04-24T13:35:47;97748.50;;;17.23
77414;BMP280;66486;49.992;19.164;2023-04-24T13:38:13;97745.31;;;17.30
77414;BMP280;66486;49.992;19.164;2023-04-24T13:40:39;97748.84;;;17.47
77414;BMP280;66486;49.992;19.164;2023-04-24T13:43:05;97746.34;;;17.44
77414;BMP280;66486;49.992;19.164;2023-04-24T13:45:31;97750.06;;;17.35
77414;BMP280;66486;49.992;19.164;2023-04-24T13:47:57;97733.06;;;17.03
77414;BMP280;66486;49.992;19.164;2023-04-24T13:50:23;97749.31;;;17.40
77414;BMP280;66486;49.992;19.164;2023-04-24T13:52:49;97746.66;;;17.62
77414;BMP280;66486;49.992;19.164;2023-04-24T13:55:15;97738.59;;;17.79
77414;BMP280;66486;49.992;19.164;2023-04-24T13:57:41;97747.00;;;17.81
77414;BMP280;66486;49.992;19.164;2023-04-24T14:00:07;97745.19;;;17.61
77414;BMP280;66486;49.992;19.164;2023-04-24T14:02:36;97741.66;;;17.44
77414;BMP280;66486;49.992;19.164;2023-04-24T14:05:02;97745.38;;;17.41
77414;BMP280;66486;49.992;19.164;2023-04-24T14:07:29;97742.09;;;17.26